Terminal Aerodrome Forecast
Issued by NWS Cleveland, OH

Home | Current Version | Previous Version | Graphics & Text | Print | Product List | Glossary On
Versions: 1 2 3 4 5 6 7 8 9 10 11 12 13 14 15 16 17 18 19 20
000
FTUS41 KCLE 151139
TAFTOL
TAF
KTOL 151139Z 1512/1612 12007KT 3SM -SN SCT015 OVC020
      TEMPO 1512/1515 2SM -SN
     FM151500 13008KT 2SM -SN OVC015
      TEMPO 1515/1518 1SM -SN
     FM151800 16008KT 1SM -SN OVC010
     FM152200 17006KT 2SM -SN OVC010
     FM152300 18005KT P6SM OVC010
     FM160200 22007KT P6SM BKN020=

USA.gov is the U.S. government's official web portal to all federal, state and local government web resources and services.